Genoa Bluff, Iowa
Current Conditions -  °F | °C
As of 4:52 AM on Tuesday 21 Oct 2014 (Local Time) from KCID Reporting Station
Clear Clear  
Wind Chill: 38°   Ceiling: Unl
Heat Index: 41°   Visibility: 10mi
Dew Point: 39°   Wind: 5mph
Humidity: 93%   Direction: 20°NNE
Pressure: 30.09"   Gusts: NA
Location:  41.7846°N, 92.1025°W
Report Text: KCID 210952Z 02004KT 10SM CLR 05/04 A3009 RMK AO2 SLP192 T00500039
Loading
Personal Weather Stations






























Interactive Weather Map
Tropical Storm Tracking
New forecast layout! Learn more

10-Day Weather Forecast

Advertisements
Track Severe Weather on mobile